New Castle, Kentucky
Current Conditions -  °F | °C
As of 8:53 PM on Monday 24 Nov 2014 (Local Time) from KFFT Reporting Station
Overcast Overcast  
Wind Chill: 42°   Ceiling: 5500
Heat Index: 46°   Visibility: 10mi
Dew Point: 33°   Wind: 7mph
Humidity: 61%   Direction: 240°WSW
Pressure: 29.91"   Gusts: NA
Location:  38.43°N, 85.17°W
Report Text: KFFT 250153Z AUTO 24006KT 10SM OVC055 08/01 A2991 RMK AO2 SLP126 T00780006
Loading
Personal Weather Stations






























Interactive Weather Map New forecast layout! Learn more

10-Day Weather Forecast

Advertisements
Track Severe Weather on mobile